sim
Sign-in with your pilot id or email,
or register
Callsign
Passwort

Schedule Details

Flight Number: OEO6525
Departure: Paris Charles de Gaulle Airport (LFPG) at 09:35
Arrival: Mumbai Chhatrapati Shivaji International Airport (VABB) at 18:20

Weather Information
Getting current METAR information for LFPG 191900Z 26005KT CAVOK 20/09 Q1020 NOSIG
Getting current METAR information for VABB 191900Z 27007KT 3500 HZ FEW020 SCT025 28/25 Q1010 BECMG 3000 HZ

Schedule Frequency

Route Map